sensor_id;sensor_type;location;lat;lon;timestamp;P1;durP1;ratioP1;P2;durP2;ratioP2
14611;SDS011;7392;52.078;11.650;2022-09-13T00:00:02;1.70;;;1.60;;
14611;SDS011;7392;52.078;11.650;2022-09-13T00:02:31;1.50;;;1.40;;
14611;SDS011;7392;52.078;11.650;2022-09-13T00:04:59;1.43;;;1.33;;
14611;SDS011;7392;52.078;11.650;2022-09-13T00:07:27;1.40;;;1.30;;
14611;SDS011;7392;52.078;11.650;2022-09-13T00:09:54;1.40;;;1.30;;
14611;SDS011;7392;52.078;11.650;2022-09-13T00:12:22;1.77;;;1.50;;
14611;SDS011;7392;52.078;11.650;2022-09-13T00:14:50;1.70;;;1.60;;
14611;SDS011;7392;52.078;11.650;2022-09-13T00:17:17;2.23;;;2.03;;
14611;SDS011;7392;52.078;11.650;2022-09-13T00:19:47;1.50;;;1.40;;
14611;SDS011;7392;52.078;11.650;2022-09-13T00:22:14;1.50;;;1.40;;
14611;SDS011;7392;52.078;11.650;2022-09-13T00:24:42;1.80;;;1.70;;
14611;SDS011;7392;52.078;11.650;2022-09-13T00:27:10;1.67;;;1.57;;
14611;SDS011;7392;52.078;11.650;2022-09-13T00:29:38;1.53;;;1.43;;
14611;SDS011;7392;52.078;11.650;2022-09-13T00:32:05;2.00;;;1.90;;
14611;SDS011;7392;52.078;11.650;2022-09-13T00:34:33;1.60;;;1.50;;
14611;SDS011;7392;52.078;11.650;2022-09-13T00:37:02;1.67;;;1.57;;
14611;SDS011;7392;52.078;11.650;2022-09-13T00:39:30;1.90;;;1.80;;
14611;SDS011;7392;52.078;11.650;2022-09-13T00:41:58;1.60;;;1.50;;
14611;SDS011;7392;52.078;11.650;2022-09-13T00:47:16;2.00;;;1.90;;
14611;SDS011;7392;52.078;11.650;2022-09-13T00:49:47;2.70;;;2.50;;
14611;SDS011;7392;52.078;11.650;2022-09-13T00:52:19;2.03;;;1.93;;
14611;SDS011;7392;52.078;11.650;2022-09-13T00:54:51;2.00;;;1.80;;
14611;SDS011;7392;52.078;11.650;2022-09-13T00:57:23;2.20;;;2.03;;
14611;SDS011;7392;52.078;11.650;2022-09-13T00:59:55;2.63;;;2.43;;
14611;SDS011;7392;52.078;11.650;2022-09-13T01:02:29;11.63;;;3.10;;
14611;SDS011;7392;52.078;11.650;2022-09-13T01:04:57;3.00;;;2.80;;
14611;SDS011;7392;52.078;11.650;2022-09-13T01:07:27;2.53;;;2.30;;
14611;SDS011;7392;52.078;11.650;2022-09-13T01:09:54;2.20;;;2.10;;
14611;SDS011;7392;52.078;11.650;2022-09-13T01:12:25;3.07;;;2.87;;
14611;SDS011;7392;52.078;11.650;2022-09-13T01:15:00;2.50;;;2.30;;
14611;SDS011;7392;52.078;11.650;2022-09-13T01:17:31;2.50;;;2.30;;
14611;SDS011;7392;52.078;11.650;2022-09-13T01:20:00;2.70;;;2.50;;
14611;SDS011;7392;52.078;11.650;2022-09-13T01:22:42;3.50;;;3.20;;
14611;SDS011;7392;52.078;11.650;2022-09-13T01:25:29;3.03;;;2.83;;
14611;SDS011;7392;52.078;11.650;2022-09-13T01:28:23;2.60;;;2.40;;
14611;SDS011;7392;52.078;11.650;2022-09-13T01:31:06;3.20;;;3.00;;
14611;SDS011;7392;52.078;11.650;2022-09-13T01:33:44;2.60;;;2.40;;
14611;SDS011;7392;52.078;11.650;2022-09-13T01:36:31;2.70;;;2.50;;
14611;SDS011;7392;52.078;11.650;2022-09-13T01:39:11;4.10;;;3.80;;
14611;SDS011;7392;52.078;11.650;2022-09-13T01:41:46;3.70;;;3.40;;
14611;SDS011;7392;52.078;11.650;2022-09-13T01:44:26;5.00;;;4.60;;
14611;SDS011;7392;52.078;11.650;2022-09-13T01:47:05;5.40;;;5.00;;
14611;SDS011;7392;52.078;11.650;2022-09-13T01:49:45;5.70;;;5.27;;
14611;SDS011;7392;52.078;11.650;2022-09-13T01:52:20;4.60;;;4.20;;
14611;SDS011;7392;52.078;11.650;2022-09-13T01:54:55;3.97;;;3.67;;
14611;SDS011;7392;52.078;11.650;2022-09-13T01:57:31;3.97;;;3.67;;
14611;SDS011;7392;52.078;11.650;2022-09-13T02:00:04;4.73;;;4.33;;
14611;SDS011;7392;52.078;11.650;2022-09-13T02:02:40;3.83;;;3.53;;
14611;SDS011;7392;52.078;11.650;2022-09-13T02:05:13;4.70;;;4.37;;
14611;SDS011;7392;52.078;11.650;2022-09-13T02:07:46;4.33;;;4.03;;
14611;SDS011;7392;52.078;11.650;2022-09-13T02:10:20;3.60;;;3.30;;
14611;SDS011;7392;52.078;11.650;2022-09-13T02:12:52;3.33;;;3.13;;
14611;SDS011;7392;52.078;11.650;2022-09-13T02:15:24;3.00;;;2.80;;
14611;SDS011;7392;52.078;11.650;2022-09-13T02:18:01;3.77;;;3.47;;
14611;SDS011;7392;52.078;11.650;2022-09-13T02:20:34;4.17;;;3.87;;
14611;SDS011;7392;52.078;11.650;2022-09-13T02:23:06;4.10;;;3.70;;
14611;SDS011;7392;52.078;11.650;2022-09-13T02:25:37;4.20;;;3.90;;
14611;SDS011;7392;52.078;11.650;2022-09-13T02:28:08;4.40;;;4.00;;
14611;SDS011;7392;52.078;11.650;2022-09-13T02:30:40;4.20;;;3.83;;
14611;SDS011;7392;52.078;11.650;2022-09-13T02:33:14;4.03;;;3.63;;
14611;SDS011;7392;52.078;11.650;2022-09-13T02:35:46;5.33;;;4.83;;
14611;SDS011;7392;52.078;11.650;2022-09-13T02:38:17;4.80;;;4.40;;
14611;SDS011;7392;52.078;11.650;2022-09-13T02:40:52;5.53;;;5.13;;
14611;SDS011;7392;52.078;11.650;2022-09-13T02:43:25;5.87;;;5.37;;
14611;SDS011;7392;52.078;11.650;2022-09-13T02:46:01;4.77;;;4.37;;
14611;SDS011;7392;52.078;11.650;2022-09-13T02:48:43;4.23;;;3.90;;
14611;SDS011;7392;52.078;11.650;2022-09-13T02:51:21;5.60;;;5.10;;
14611;SDS011;7392;52.078;11.650;2022-09-13T02:53:54;5.30;;;4.87;;
14611;SDS011;7392;52.078;11.650;2022-09-13T02:56:33;5.37;;;4.23;;
14611;SDS011;7392;52.078;11.650;2022-09-13T02:59:11;4.80;;;4.40;;
14611;SDS011;7392;52.078;11.650;2022-09-13T03:01:43;5.67;;;5.17;;
14611;SDS011;7392;52.078;11.650;2022-09-13T03:04:18;5.07;;;4.57;;
14611;SDS011;7392;52.078;11.650;2022-09-13T03:06:47;3.80;;;3.50;;
14611;SDS011;7392;52.078;11.650;2022-09-13T03:09:16;3.90;;;3.60;;
14611;SDS011;7392;52.078;11.650;2022-09-13T03:11:55;3.80;;;3.50;;
14611;SDS011;7392;52.078;11.650;2022-09-13T03:14:39;3.50;;;3.20;;
14611;SDS011;7392;52.078;11.650;2022-09-13T03:17:14;3.80;;;3.50;;
14611;SDS011;7392;52.078;11.650;2022-09-13T03:20:00;3.03;;;2.83;;
14611;SDS011;7392;52.078;11.650;2022-09-13T03:23:04;2.90;;;2.70;;
14611;SDS011;7392;52.078;11.650;2022-09-13T03:25:43;3.63;;;3.33;;
14611;SDS011;7392;52.078;11.650;2022-09-13T03:28:23;3.33;;;3.03;;
14611;SDS011;7392;52.078;11.650;2022-09-13T03:31:02;3.20;;;3.00;;
14611;SDS011;7392;52.078;11.650;2022-09-13T03:33:37;3.67;;;3.37;;
14611;SDS011;7392;52.078;11.650;2022-09-13T03:36:13;3.60;;;3.30;;
14611;SDS011;7392;52.078;11.650;2022-09-13T03:38:50;3.50;;;3.10;;
14611;SDS011;7392;52.078;11.650;2022-09-13T03:41:24;4.53;;;3.77;;
14611;SDS011;7392;52.078;11.650;2022-09-13T03:43:57;3.20;;;3.00;;
14611;SDS011;7392;52.078;11.650;2022-09-13T03:46:28;3.53;;;3.23;;
14611;SDS011;7392;52.078;11.650;2022-09-13T03:49:00;3.00;;;2.77;;
14611;SDS011;7392;52.078;11.650;2022-09-13T03:51:32;3.33;;;3.03;;
14611;SDS011;7392;52.078;11.650;2022-09-13T03:54:00;4.00;;;3.00;;
14611;SDS011;7392;52.078;11.650;2022-09-13T03:56:31;3.60;;;3.30;;
14611;SDS011;7392;52.078;11.650;2022-09-13T03:58:58;2.90;;;2.70;;
14611;SDS011;7392;52.078;11.650;2022-09-13T04:01:26;3.00;;;2.70;;
14611;SDS011;7392;52.078;11.650;2022-09-13T04:03:54;2.43;;;2.23;;
14611;SDS011;7392;52.078;11.650;2022-09-13T04:06:22;2.83;;;2.63;;
14611;SDS011;7392;52.078;11.650;2022-09-13T04:08:51;3.10;;;2.80;;
14611;SDS011;7392;52.078;11.650;2022-09-13T04:11:19;3.00;;;2.73;;
14611;SDS011;7392;52.078;11.650;2022-09-13T04:13:47;2.70;;;2.50;;
14611;SDS011;7392;52.078;11.650;2022-09-13T04:16:15;3.00;;;2.50;;
14611;SDS011;7392;52.078;11.650;2022-09-13T04:18:43;2.97;;;2.77;;
14611;SDS011;7392;52.078;11.650;2022-09-13T04:21:10;2.50;;;2.30;;
14611;SDS011;7392;52.078;11.650;2022-09-13T04:23:38;2.73;;;2.53;;
14611;SDS011;7392;52.078;11.650;2022-09-13T04:26:07;3.27;;;2.10;;
14611;SDS011;7392;52.078;11.650;2022-09-13T04:28:35;2.13;;;1.93;;
14611;SDS011;7392;52.078;11.650;2022-09-13T04:31:03;2.07;;;1.87;;
14611;SDS011;7392;52.078;11.650;2022-09-13T04:33:31;2.20;;;2.00;;
14611;SDS011;7392;52.078;11.650;2022-09-13T04:38:35;1.97;;;1.80;;
14611;SDS011;7392;52.078;11.650;2022-09-13T04:41:03;1.90;;;1.80;;
14611;SDS011;7392;52.078;11.650;2022-09-13T04:43:32;1.53;;;1.43;;
14611;SDS011;7392;52.078;11.650;2022-09-13T04:46:00;1.33;;;1.23;;
14611;SDS011;7392;52.078;11.650;2022-09-13T04:48:27;1.77;;;1.40;;
14611;SDS011;7392;52.078;11.650;2022-09-13T04:50:59;1.47;;;1.37;;
14611;SDS011;7392;52.078;11.650;2022-09-13T04:53:28;1.90;;;1.80;;
14611;SDS011;7392;52.078;11.650;2022-09-13T04:55:58;1.63;;;1.53;;
14611;SDS011;7392;52.078;11.650;2022-09-13T04:58:26;2.40;;;2.20;;
14611;SDS011;7392;52.078;11.650;2022-09-13T05:01:00;2.27;;;1.90;;
14611;SDS011;7392;52.078;11.650;2022-09-13T05:03:28;1.60;;;1.50;;
14611;SDS011;7392;52.078;11.650;2022-09-13T05:06:00;1.43;;;1.33;;
14611;SDS011;7392;52.078;11.650;2022-09-13T05:08:28;1.60;;;1.50;;
14611;SDS011;7392;52.078;11.650;2022-09-13T05:10:56;1.60;;;1.50;;
14611;SDS011;7392;52.078;11.650;2022-09-13T05:13:24;1.37;;;1.27;;
14611;SDS011;7392;52.078;11.650;2022-09-13T05:15:53;1.30;;;1.20;;
14611;SDS011;7392;52.078;11.650;2022-09-13T05:18:24;1.73;;;1.63;;
14611;SDS011;7392;52.078;11.650;2022-09-13T05:20:52;1.77;;;1.67;;
14611;SDS011;7392;52.078;11.650;2022-09-13T05:23:21;1.60;;;1.50;;
14611;SDS011;7392;52.078;11.650;2022-09-13T05:25:52;1.90;;;1.80;;
14611;SDS011;7392;52.078;11.650;2022-09-13T05:28:20;2.17;;;2.03;;
14611;SDS011;7392;52.078;11.650;2022-09-13T05:30:54;1.73;;;1.63;;
14611;SDS011;7392;52.078;11.650;2022-09-13T05:33:24;2.03;;;1.90;;
14611;SDS011;7392;52.078;11.650;2022-09-13T05:35:52;2.00;;;1.80;;
14611;SDS011;7392;52.078;11.650;2022-09-13T05:38:21;2.00;;;1.80;;
14611;SDS011;7392;52.078;11.650;2022-09-13T05:40:52;3.60;;;2.20;;
14611;SDS011;7392;52.078;11.650;2022-09-13T05:43:21;2.00;;;1.80;;
14611;SDS011;7392;52.078;11.650;2022-09-13T05:45:58;2.47;;;1.80;;
14611;SDS011;7392;52.078;11.650;2022-09-13T05:48:28;1.90;;;1.80;;
14611;SDS011;7392;52.078;11.650;2022-09-13T05:50:56;1.93;;;1.73;;
14611;SDS011;7392;52.078;11.650;2022-09-13T05:53:31;1.40;;;1.30;;
14611;SDS011;7392;52.078;11.650;2022-09-13T05:55:59;2.30;;;2.10;;
14611;SDS011;7392;52.078;11.650;2022-09-13T05:58:26;3.13;;;2.73;;
14611;SDS011;7392;52.078;11.650;2022-09-13T06:00:54;2.87;;;2.57;;
14611;SDS011;7392;52.078;11.650;2022-09-13T06:03:23;3.10;;;2.77;;
14611;SDS011;7392;52.078;11.650;2022-09-13T06:05:55;3.97;;;3.13;;
14611;SDS011;7392;52.078;11.650;2022-09-13T06:08:23;2.80;;;2.27;;
14611;SDS011;7392;52.078;11.650;2022-09-13T06:10:52;2.90;;;2.60;;
14611;SDS011;7392;52.078;11.650;2022-09-13T06:13:21;2.80;;;2.60;;
14611;SDS011;7392;52.078;11.650;2022-09-13T06:15:48;2.50;;;2.30;;
14611;SDS011;7392;52.078;11.650;2022-09-13T06:18:16;2.43;;;2.23;;
14611;SDS011;7392;52.078;11.650;2022-09-13T06:20:44;3.00;;;2.70;;
14611;SDS011;7392;52.078;11.650;2022-09-13T06:23:14;2.80;;;2.60;;
14611;SDS011;7392;52.078;11.650;2022-09-13T06:25:43;2.90;;;2.70;;
14611;SDS011;7392;52.078;11.650;2022-09-13T06:28:10;4.63;;;4.23;;
14611;SDS011;7392;52.078;11.650;2022-09-13T06:30:38;5.17;;;4.63;;
14611;SDS011;7392;52.078;11.650;2022-09-13T06:33:06;5.50;;;4.97;;
14611;SDS011;7392;52.078;11.650;2022-09-13T06:35:33;6.00;;;5.37;;
14611;SDS011;7392;52.078;11.650;2022-09-13T06:38:01;4.93;;;4.43;;
14611;SDS011;7392;52.078;11.650;2022-09-13T06:40:30;4.77;;;4.27;;
14611;SDS011;7392;52.078;11.650;2022-09-13T06:42:58;4.57;;;4.17;;
14611;SDS011;7392;52.078;11.650;2022-09-13T06:45:25;4.30;;;3.90;;
14611;SDS011;7392;52.078;11.650;2022-09-13T06:47:53;3.83;;;3.53;;
14611;SDS011;7392;52.078;11.650;2022-09-13T06:50:21;3.90;;;3.60;;
14611;SDS011;7392;52.078;11.650;2022-09-13T06:52:48;3.80;;;3.50;;
14611;SDS011;7392;52.078;11.650;2022-09-13T06:55:16;5.30;;;4.80;;
14611;SDS011;7392;52.078;11.650;2022-09-13T06:57:45;6.53;;;5.93;;
14611;SDS011;7392;52.078;11.650;2022-09-13T07:00:13;6.97;;;6.30;;
14611;SDS011;7392;52.078;11.650;2022-09-13T07:02:41;7.63;;;6.90;;
14611;SDS011;7392;52.078;11.650;2022-09-13T07:05:09;6.93;;;6.30;;
14611;SDS011;7392;52.078;11.650;2022-09-13T07:07:37;7.03;;;6.13;;
14611;SDS011;7392;52.078;11.650;2022-09-13T07:10:05;5.70;;;5.07;;
14611;SDS011;7392;52.078;11.650;2022-09-13T07:12:33;8.23;;;7.43;;
14611;SDS011;7392;52.078;11.650;2022-09-13T07:15:02;5.90;;;5.40;;
14611;SDS011;7392;52.078;11.650;2022-09-13T07:17:30;7.80;;;6.23;;
14611;SDS011;7392;52.078;11.650;2022-09-13T07:19:58;5.43;;;4.93;;
14611;SDS011;7392;52.078;11.650;2022-09-13T07:22:25;5.20;;;4.70;;
14611;SDS011;7392;52.078;11.650;2022-09-13T07:24:53;5.50;;;5.00;;
14611;SDS011;7392;52.078;11.650;2022-09-13T07:27:22;5.73;;;5.13;;
14611;SDS011;7392;52.078;11.650;2022-09-13T07:29:50;6.83;;;6.23;;
14611;SDS011;7392;52.078;11.650;2022-09-13T07:32:19;6.03;;;5.43;;
14611;SDS011;7392;52.078;11.650;2022-09-13T07:34:48;8.40;;;7.53;;
14611;SDS011;7392;52.078;11.650;2022-09-13T07:37:15;5.93;;;5.43;;
14611;SDS011;7392;52.078;11.650;2022-09-13T07:39:43;4.93;;;4.50;;
14611;SDS011;7392;52.078;11.650;2022-09-13T07:42:10;5.40;;;4.90;;
14611;SDS011;7392;52.078;11.650;2022-09-13T07:44:38;4.80;;;4.23;;
14611;SDS011;7392;52.078;11.650;2022-09-13T07:47:05;4.10;;;3.80;;
14611;SDS011;7392;52.078;11.650;2022-09-13T07:49:34;3.90;;;3.37;;
14611;SDS011;7392;52.078;11.650;2022-09-13T07:52:02;3.93;;;3.53;;
14611;SDS011;7392;52.078;11.650;2022-09-13T07:54:30;3.80;;;3.50;;
14611;SDS011;7392;52.078;11.650;2022-09-13T07:56:59;3.63;;;3.17;;
14611;SDS011;7392;52.078;11.650;2022-09-13T07:59:27;3.37;;;3.07;;
14611;SDS011;7392;52.078;11.650;2022-09-13T08:01:55;3.20;;;2.90;;
14611;SDS011;7392;52.078;11.650;2022-09-13T08:04:23;3.60;;;3.30;;
14611;SDS011;7392;52.078;11.650;2022-09-13T08:06:53;4.97;;;4.17;;
14611;SDS011;7392;52.078;11.650;2022-09-13T08:09:21;5.43;;;4.93;;
14611;SDS011;7392;52.078;11.650;2022-09-13T08:11:49;5.50;;;5.00;;
14611;SDS011;7392;52.078;11.650;2022-09-13T08:14:19;5.17;;;4.67;;
14611;SDS011;7392;52.078;11.650;2022-09-13T08:16:48;5.17;;;4.70;;
14611;SDS011;7392;52.078;11.650;2022-09-13T08:19:17;5.50;;;5.00;;
14611;SDS011;7392;52.078;11.650;2022-09-13T08:21:45;6.33;;;5.77;;
14611;SDS011;7392;52.078;11.650;2022-09-13T08:24:15;5.60;;;5.10;;
14611;SDS011;7392;52.078;11.650;2022-09-13T08:26:43;4.87;;;4.47;;
14611;SDS011;7392;52.078;11.650;2022-09-13T08:29:13;4.27;;;3.87;;
14611;SDS011;7392;52.078;11.650;2022-09-13T08:31:41;4.17;;;3.77;;
14611;SDS011;7392;52.078;11.650;2022-09-13T08:34:09;4.67;;;4.27;;
14611;SDS011;7392;52.078;11.650;2022-09-13T08:36:38;3.90;;;3.60;;
14611;SDS011;7392;52.078;11.650;2022-09-13T08:39:07;4.50;;;4.10;;
14611;SDS011;7392;52.078;11.650;2022-09-13T08:44:39;5.90;;;5.30;;
14611;SDS011;7392;52.078;11.650;2022-09-13T08:47:23;7.47;;;6.77;;
14611;SDS011;7392;52.078;11.650;2022-09-13T08:49:59;6.30;;;5.70;;
14611;SDS011;7392;52.078;11.650;2022-09-13T08:52:33;7.77;;;6.97;;
14611;SDS011;7392;52.078;11.650;2022-09-13T08:55:13;6.93;;;6.23;;
14611;SDS011;7392;52.078;11.650;2022-09-13T08:57:52;8.53;;;6.43;;
14611;SDS011;7392;52.078;11.650;2022-09-13T09:00:28;6.80;;;6.20;;
14611;SDS011;7392;52.078;11.650;2022-09-13T09:03:05;6.90;;;6.27;;
14611;SDS011;7392;52.078;11.650;2022-09-13T09:05:45;7.13;;;6.43;;
14611;SDS011;7392;52.078;11.650;2022-09-13T09:08:17;5.80;;;5.30;;
14611;SDS011;7392;52.078;11.650;2022-09-13T09:10:57;6.37;;;5.77;;
14611;SDS011;7392;52.078;11.650;2022-09-13T09:13:31;8.20;;;7.00;;
14611;SDS011;7392;52.078;11.650;2022-09-13T09:16:04;6.87;;;6.20;;
14611;SDS011;7392;52.078;11.650;2022-09-13T09:18:34;7.07;;;6.37;;
14611;SDS011;7392;52.078;11.650;2022-09-13T09:21:08;7.43;;;6.73;;
14611;SDS011;7392;52.078;11.650;2022-09-13T09:23:40;7.53;;;6.57;;
14611;SDS011;7392;52.078;11.650;2022-09-13T09:26:16;6.70;;;6.10;;
14611;SDS011;7392;52.078;11.650;2022-09-13T09:28:46;6.70;;;6.10;;
14611;SDS011;7392;52.078;11.650;2022-09-13T09:31:18;5.73;;;5.23;;
14611;SDS011;7392;52.078;11.650;2022-09-13T09:33:55;6.97;;;6.27;;
14611;SDS011;7392;52.078;11.650;2022-09-13T09:36:34;6.43;;;5.83;;
14611;SDS011;7392;52.078;11.650;2022-09-13T09:39:06;5.37;;;4.97;;
14611;SDS011;7392;52.078;11.650;2022-09-13T09:41:37;5.00;;;4.60;;
14611;SDS011;7392;52.078;11.650;2022-09-13T09:44:12;5.43;;;4.67;;
14611;SDS011;7392;52.078;11.650;2022-09-13T09:46:45;6.47;;;5.10;;
14611;SDS011;7392;52.078;11.650;2022-09-13T09:49:17;5.87;;;4.63;;
14611;SDS011;7392;52.078;11.650;2022-09-13T09:52:06;4.33;;;3.93;;
14611;SDS011;7392;52.078;11.650;2022-09-13T09:54:37;4.13;;;3.73;;
14611;SDS011;7392;52.078;11.650;2022-09-13T09:57:06;4.23;;;3.83;;
14611;SDS011;7392;52.078;11.650;2022-09-13T09:59:36;4.07;;;3.67;;
14611;SDS011;7392;52.078;11.650;2022-09-13T10:02:10;4.30;;;3.90;;
14611;SDS011;7392;52.078;11.650;2022-09-13T10:04:43;5.03;;;3.77;;
14611;SDS011;7392;52.078;11.650;2022-09-13T10:07:23;3.40;;;3.10;;
14611;SDS011;7392;52.078;11.650;2022-09-13T10:09:56;3.93;;;3.53;;
14611;SDS011;7392;52.078;11.650;2022-09-13T10:12:26;3.40;;;2.90;;
14611;SDS011;7392;52.078;11.650;2022-09-13T10:15:05;4.40;;;4.00;;
14611;SDS011;7392;52.078;11.650;2022-09-13T10:17:42;4.40;;;4.00;;
14611;SDS011;7392;52.078;11.650;2022-09-13T10:20:20;5.07;;;3.60;;
14611;SDS011;7392;52.078;11.650;2022-09-13T10:23:08;4.10;;;3.70;;
14611;SDS011;7392;52.078;11.650;2022-09-13T10:25:43;3.07;;;2.83;;
14611;SDS011;7392;52.078;11.650;2022-09-13T10:28:14;3.10;;;2.60;;
14611;SDS011;7392;52.078;11.650;2022-09-13T10:30:47;6.10;;;3.93;;
14611;SDS011;7392;52.078;11.650;2022-09-13T10:33:23;3.13;;;2.83;;
14611;SDS011;7392;52.078;11.650;2022-09-13T10:35:54;2.97;;;2.67;;
14611;SDS011;7392;52.078;11.650;2022-09-13T10:38:25;2.87;;;2.67;;
14611;SDS011;7392;52.078;11.650;2022-09-13T10:40:57;2.57;;;2.37;;
14611;SDS011;7392;52.078;11.650;2022-09-13T10:43:28;2.60;;;2.40;;
14611;SDS011;7392;52.078;11.650;2022-09-13T10:46:00;2.00;;;1.80;;
14611;SDS011;7392;52.078;11.650;2022-09-13T10:48:42;2.30;;;2.10;;
14611;SDS011;7392;52.078;11.650;2022-09-13T10:51:20;2.30;;;2.10;;
14611;SDS011;7392;52.078;11.650;2022-09-13T10:54:07;3.30;;;2.87;;
14611;SDS011;7392;52.078;11.650;2022-09-13T10:56:44;4.30;;;2.83;;
14611;SDS011;7392;52.078;11.650;2022-09-13T10:59:18;3.93;;;3.27;;
14611;SDS011;7392;52.078;11.650;2022-09-13T11:01:58;3.53;;;3.23;;
14611;SDS011;7392;52.078;11.650;2022-09-13T11:04:55;3.40;;;3.10;;
14611;SDS011;7392;52.078;11.650;2022-09-13T11:07:38;3.37;;;3.00;;
14611;SDS011;7392;52.078;11.650;2022-09-13T11:10:16;3.83;;;3.30;;
14611;SDS011;7392;52.078;11.650;2022-09-13T11:12:50;4.07;;;3.67;;
14611;SDS011;7392;52.078;11.650;2022-09-13T11:15:29;3.50;;;3.20;;
14611;SDS011;7392;52.078;11.650;2022-09-13T11:18:29;3.90;;;3.10;;
14611;SDS011;7392;52.078;11.650;2022-09-13T11:21:16;4.20;;;3.70;;
14611;SDS011;7392;52.078;11.650;2022-09-13T11:23:54;3.50;;;3.20;;
14611;SDS011;7392;52.078;11.650;2022-09-13T11:26:45;3.10;;;2.80;;
14611;SDS011;7392;52.078;11.650;2022-09-13T11:29:30;3.80;;;3.40;;
14611;SDS011;7392;52.078;11.650;2022-09-13T11:32:10;3.73;;;3.33;;
14611;SDS011;7392;52.078;11.650;2022-09-13T11:34:53;3.50;;;3.20;;
14611;SDS011;7392;52.078;11.650;2022-09-13T11:37:39;3.37;;;2.90;;
14611;SDS011;7392;52.078;11.650;2022-09-13T11:40:21;5.53;;;3.30;;
14611;SDS011;7392;52.078;11.650;2022-09-13T11:42:58;4.07;;;3.53;;
14611;SDS011;7392;52.078;11.650;2022-09-13T11:45:47;4.47;;;3.73;;
14611;SDS011;7392;52.078;11.650;2022-09-13T11:48:29;4.07;;;3.40;;
14611;SDS011;7392;52.078;11.650;2022-09-13T11:51:20;4.37;;;3.93;;
14611;SDS011;7392;52.078;11.650;2022-09-13T11:54:01;4.30;;;3.27;;
14611;SDS011;7392;52.078;11.650;2022-09-13T11:56:40;3.67;;;3.37;;
14611;SDS011;7392;52.078;11.650;2022-09-13T11:59:14;3.83;;;3.43;;
14611;SDS011;7392;52.078;11.650;2022-09-13T12:01:48;3.60;;;2.97;;
14611;SDS011;7392;52.078;11.650;2022-09-13T12:04:22;3.53;;;2.97;;
14611;SDS011;7392;52.078;11.650;2022-09-13T12:07:00;3.50;;;3.20;;
14611;SDS011;7392;52.078;11.650;2022-09-13T12:09:36;3.30;;;3.00;;
14611;SDS011;7392;52.078;11.650;2022-09-13T12:12:09;3.20;;;2.90;;
14611;SDS011;7392;52.078;11.650;2022-09-13T12:14:40;3.40;;;3.10;;
14611;SDS011;7392;52.078;11.650;2022-09-13T12:17:14;3.07;;;2.77;;
14611;SDS011;7392;52.078;11.650;2022-09-13T12:19:54;3.30;;;3.00;;
14611;SDS011;7392;52.078;11.650;2022-09-13T12:22:25;3.40;;;2.87;;
14611;SDS011;7392;52.078;11.650;2022-09-13T12:24:57;3.90;;;2.50;;
14611;SDS011;7392;52.078;11.650;2022-09-13T12:27:30;3.47;;;2.80;;
14611;SDS011;7392;52.078;11.650;2022-09-13T12:30:07;2.77;;;2.57;;
14611;SDS011;7392;52.078;11.650;2022-09-13T12:32:41;2.70;;;2.50;;
14611;SDS011;7392;52.078;11.650;2022-09-13T12:35:16;3.00;;;2.70;;
14611;SDS011;7392;52.078;11.650;2022-09-13T12:37:55;2.57;;;2.37;;
14611;SDS011;7392;52.078;11.650;2022-09-13T12:40:38;3.13;;;2.53;;
14611;SDS011;7392;52.078;11.650;2022-09-13T12:43:22;2.60;;;2.40;;
14611;SDS011;7392;52.078;11.650;2022-09-13T12:46:14;2.07;;;1.87;;
14611;SDS011;7392;52.078;11.650;2022-09-13T12:49:07;2.23;;;2.03;;
14611;SDS011;7392;52.078;11.650;2022-09-13T12:54:50;2.73;;;2.07;;
14611;SDS011;7392;52.078;11.650;2022-09-13T12:57:54;2.50;;;2.27;;
14611;SDS011;7392;52.078;11.650;2022-09-13T13:00:32;2.20;;;2.00;;
14611;SDS011;7392;52.078;11.650;2022-09-13T13:03:11;2.53;;;2.20;;
14611;SDS011;7392;52.078;11.650;2022-09-13T13:05:43;3.00;;;2.70;;
14611;SDS011;7392;52.078;11.650;2022-09-13T13:08:22;2.77;;;2.50;;
14611;SDS011;7392;52.078;11.650;2022-09-13T13:11:03;2.17;;;1.97;;
14611;SDS011;7392;52.078;11.650;2022-09-13T13:13:36;2.17;;;1.97;;
14611;SDS011;7392;52.078;11.650;2022-09-13T13:16:22;2.70;;;2.50;;
14611;SDS011;7392;52.078;11.650;2022-09-13T13:18:53;2.50;;;2.30;;
14611;SDS011;7392;52.078;11.650;2022-09-13T13:33:25;2.33;;;2.13;;
14611;SDS011;7392;52.078;11.650;2022-09-13T13:35:57;2.80;;;2.47;;
14611;SDS011;7392;52.078;11.650;2022-09-13T13:38:49;2.50;;;2.30;;
14611;SDS011;7392;52.078;11.650;2022-09-13T13:41:35;2.23;;;1.90;;
14611;SDS011;7392;52.078;11.650;2022-09-13T13:50:20;2.20;;;2.00;;
14611;SDS011;7392;52.078;11.650;2022-09-13T13:52:53;2.10;;;2.00;;
14611;SDS011;7392;52.078;11.650;2022-09-13T13:55:30;2.40;;;2.10;;
14611;SDS011;7392;52.078;11.650;2022-09-13T13:58:11;2.13;;;1.93;;
14611;SDS011;7392;52.078;11.650;2022-09-13T14:00:51;2.17;;;1.97;;
14611;SDS011;7392;52.078;11.650;2022-09-13T14:03:22;2.30;;;2.10;;
14611;SDS011;7392;52.078;11.650;2022-09-13T14:05:59;2.70;;;2.43;;
14611;SDS011;7392;52.078;11.650;2022-09-13T14:08:40;1.90;;;1.80;;
14611;SDS011;7392;52.078;11.650;2022-09-13T14:11:21;2.10;;;1.90;;
14611;SDS011;7392;52.078;11.650;2022-09-13T14:14:06;2.43;;;2.23;;
14611;SDS011;7392;52.078;11.650;2022-09-13T14:16:48;2.80;;;2.60;;
14611;SDS011;7392;52.078;11.650;2022-09-13T14:19:26;2.83;;;2.63;;
14611;SDS011;7392;52.078;11.650;2022-09-13T14:22:04;2.17;;;2.00;;
14611;SDS011;7392;52.078;11.650;2022-09-13T14:24:43;2.83;;;2.30;;
14611;SDS011;7392;52.078;11.650;2022-09-13T14:27:15;2.47;;;2.27;;
14611;SDS011;7392;52.078;11.650;2022-09-13T14:29:46;2.97;;;2.67;;
14611;SDS011;7392;52.078;11.650;2022-09-13T14:32:17;2.30;;;2.10;;
14611;SDS011;7392;52.078;11.650;2022-09-13T14:34:53;2.40;;;2.20;;
14611;SDS011;7392;52.078;11.650;2022-09-13T14:37:27;2.50;;;2.30;;
14611;SDS011;7392;52.078;11.650;2022-09-13T14:39:58;4.80;;;2.20;;
14611;SDS011;7392;52.078;11.650;2022-09-13T14:42:36;2.60;;;2.40;;
14611;SDS011;7392;52.078;11.650;2022-09-13T14:45:05;2.40;;;2.20;;
14611;SDS011;7392;52.078;11.650;2022-09-13T14:47:40;2.20;;;2.00;;
14611;SDS011;7392;52.078;11.650;2022-09-13T14:50:15;1.90;;;1.80;;
14611;SDS011;7392;52.078;11.650;2022-09-13T14:52:47;1.83;;;1.73;;
14611;SDS011;7392;52.078;11.650;2022-09-13T14:55:19;2.67;;;2.23;;
14611;SDS011;7392;52.078;11.650;2022-09-13T14:57:51;2.50;;;2.30;;
14611;SDS011;7392;52.078;11.650;2022-09-13T15:00:23;2.80;;;2.60;;
14611;SDS011;7392;52.078;11.650;2022-09-13T15:02:53;2.73;;;2.30;;
14611;SDS011;7392;52.078;11.650;2022-09-13T15:05:24;2.53;;;2.33;;
14611;SDS011;7392;52.078;11.650;2022-09-13T15:07:54;2.03;;;1.90;;
14611;SDS011;7392;52.078;11.650;2022-09-13T15:10:25;2.03;;;1.90;;
14611;SDS011;7392;52.078;11.650;2022-09-13T15:12:54;2.30;;;2.10;;
14611;SDS011;7392;52.078;11.650;2022-09-13T15:15:35;2.10;;;1.90;;
14611;SDS011;7392;52.078;11.650;2022-09-13T15:18:04;2.70;;;2.37;;
14611;SDS011;7392;52.078;11.650;2022-09-13T15:20:50;2.80;;;2.60;;
14611;SDS011;7392;52.078;11.650;2022-09-13T15:23:21;3.00;;;2.70;;
14611;SDS011;7392;52.078;11.650;2022-09-13T15:25:53;3.23;;;2.93;;
14611;SDS011;7392;52.078;11.650;2022-09-13T15:28:23;3.07;;;2.77;;
14611;SDS011;7392;52.078;11.650;2022-09-13T15:30:54;3.10;;;2.90;;
14611;SDS011;7392;52.078;11.650;2022-09-13T15:33:24;2.50;;;2.30;;
14611;SDS011;7392;52.078;11.650;2022-09-13T15:36:13;3.97;;;3.00;;
14611;SDS011;7392;52.078;11.650;2022-09-13T15:38:55;3.33;;;3.03;;
14611;SDS011;7392;52.078;11.650;2022-09-13T15:41:29;3.17;;;2.87;;
14611;SDS011;7392;52.078;11.650;2022-09-13T15:43:58;2.63;;;2.43;;
14611;SDS011;7392;52.078;11.650;2022-09-13T15:46:26;2.60;;;2.40;;
14611;SDS011;7392;52.078;11.650;2022-09-13T15:48:55;2.40;;;2.20;;
14611;SDS011;7392;52.078;11.650;2022-09-13T15:51:25;2.60;;;2.40;;
14611;SDS011;7392;52.078;11.650;2022-09-13T15:53:53;3.30;;;3.00;;